createdAt,value
2023-05-23T00:01:21.565Z,98094.72
2023-05-23T00:03:49.591Z,98092.44
2023-05-23T00:06:21.459Z,98094.34
2023-05-23T00:08:48.441Z,98090.84
2023-05-23T00:11:16.240Z,98099.06
2023-05-23T00:13:42.892Z,98087.78
2023-05-23T00:16:09.888Z,98083.03
2023-05-23T00:18:37.019Z,98089.41
2023-05-23T00:21:04.022Z,98097.44
2023-05-23T00:23:34.386Z,98094.38
2023-05-23T00:26:01.169Z,98094.38
2023-05-23T00:28:28.206Z,98100.94
2023-05-23T00:30:54.978Z,98101.38
2023-05-23T00:33:22.529Z,98094.94
2023-05-23T00:35:49.458Z,98097.25
2023-05-23T00:38:16.800Z,98104.25
2023-05-23T00:40:43.452Z,98098.06
2023-05-23T00:43:13.198Z,98109.03
2023-05-23T00:45:40.090Z,98103.47
2023-05-23T00:48:07.158Z,98111.31
2023-05-23T00:50:34.569Z,98112.56
2023-05-23T00:53:01.574Z,98107.81
2023-05-23T00:55:28.914Z,98114.22
2023-05-23T00:57:58.596Z,98113.81
2023-05-23T01:00:25.575Z,98113.00
2023-05-23T01:02:52.671Z,98112.78
2023-05-23T01:05:20.238Z,98123.88
2023-05-23T01:07:47.524Z,98124.75
2023-05-23T01:10:14.678Z,98123.53
2023-05-23T01:12:43.841Z,98120.22
2023-05-23T01:15:11.404Z,98123.72
2023-05-23T01:17:50.945Z,98128.88
2023-05-23T01:20:22.529Z,98127.22
2023-05-23T01:22:55.527Z,98124.13
2023-05-23T01:25:24.392Z,98122.47
2023-05-23T01:27:51.791Z,98118.56
2023-05-23T01:30:19.645Z,98122.72
2023-05-23T01:32:47.074Z,98125.59
2023-05-23T01:35:13.753Z,98119.38
2023-05-23T01:37:41.212Z,98117.56
2023-05-23T01:40:08.040Z,98121.03
2023-05-23T01:42:36.502Z,98117.13
2023-05-23T01:45:03.218Z,98121.66
2023-05-23T01:47:34.410Z,98110.38
2023-05-23T01:50:01.078Z,98126.00
2023-05-23T01:52:27.733Z,98126.41
2023-05-23T01:54:54.373Z,98124.38
2023-05-23T01:57:21.202Z,98129.28
2023-05-23T01:59:48.261Z,98128.66
2023-05-23T02:02:15.492Z,98129.47
2023-05-23T02:04:42.233Z,98132.38
2023-05-23T02:07:09.340Z,98131.75
2023-05-23T02:09:36.037Z,98134.44
2023-05-23T02:12:02.676Z,98124.13
2023-05-23T02:14:29.385Z,98135.88
2023-05-23T02:16:56.165Z,98130.72
2023-05-23T02:19:23.120Z,98134.00
2023-05-23T02:21:50.009Z,98132.59
2023-05-23T02:24:18.263Z,98127.44
2023-05-23T02:26:45.807Z,98126.00
2023-05-23T02:29:12.521Z,98134.44
2023-05-23T02:31:39.257Z,98137.53
2023-05-23T02:34:06.145Z,98134.25
2023-05-23T02:36:33.574Z,98136.28
2023-05-23T02:39:00.366Z,98140.41
2023-05-23T02:41:27.258Z,98138.75
2023-05-23T02:43:53.998Z,98136.47
2023-05-23T02:46:20.780Z,98141.22
2023-05-23T02:48:48.375Z,98146.97
2023-05-23T02:51:15.078Z,98148.81
2023-05-23T02:53:41.825Z,98147.16
2023-05-23T02:56:08.992Z,98149.84
2023-05-23T02:58:35.921Z,98156.63
2023-05-23T03:01:02.994Z,98152.94
2023-05-23T03:03:31.872Z,98153.34
2023-05-23T03:05:58.744Z,98152.72
2023-05-23T03:08:31.854Z,98154.56
2023-05-23T03:10:58.680Z,98155.81
2023-05-23T03:13:25.461Z,98159.72
2023-05-23T03:15:52.314Z,98158.69
2023-05-23T03:18:19.108Z,98162.41
2023-05-23T03:20:46.423Z,98162.59
2023-05-23T03:23:13.214Z,98161.56
2023-05-23T03:25:40.178Z,98159.31
2023-05-23T03:28:07.118Z,98167.53
2023-05-23T03:30:33.895Z,98166.28
2023-05-23T03:33:00.690Z,98167.53
2023-05-23T03:35:29.173Z,98173.91
2023-05-23T03:37:55.960Z,98164.44
2023-05-23T03:40:22.851Z,98170.38
2023-05-23T03:42:50.097Z,98171.19
2023-05-23T03:45:16.931Z,98168.31
2023-05-23T03:47:43.790Z,98173.47
2023-05-23T03:50:10.870Z,98170.59
2023-05-23T03:52:37.894Z,98166.06
2023-05-23T03:55:05.314Z,98159.91
2023-05-23T03:57:32.100Z,98161.94
2023-05-23T03:59:58.984Z,98159.69
2023-05-23T04:02:26.524Z,98168.34
2023-05-23T04:04:54.444Z,98169.63
2023-05-23T04:07:21.335Z,98169.19
2023-05-23T04:09:48.553Z,98177.44
2023-05-23T04:12:15.760Z,98173.94
2023-05-23T04:14:42.671Z,98176.63
2023-05-23T04:17:09.628Z,98181.97
2023-05-23T04:19:37.484Z,98177.81
2023-05-23T04:22:04.197Z,98181.97
2023-05-23T04:24:30.992Z,98184.06
2023-05-23T04:26:57.677Z,98177.44
2023-05-23T04:29:26.438Z,98186.69
2023-05-23T04:31:55.143Z,98187.50
2023-05-23T04:34:22.807Z,98187.91
2023-05-23T04:36:49.639Z,98186.47
2023-05-23T04:39:16.707Z,98187.28
2023-05-23T04:41:56.966Z,98184.00
2023-05-23T04:44:45.017Z,98191.38
2023-05-23T04:47:16.480Z,98195.72
2023-05-23T04:50:02.399Z,98203.31
2023-05-23T04:52:33.445Z,98195.06
2023-05-23T04:55:00.861Z,98204.38
2023-05-23T04:57:27.821Z,98199.41
2023-05-23T04:59:54.582Z,98201.28
2023-05-23T05:02:21.299Z,98201.50
2023-05-23T05:04:48.030Z,98205.63
2023-05-23T05:07:15.360Z,98205.00
2023-05-23T05:09:42.249Z,98207.88
2023-05-23T05:12:11.092Z,98210.75
2023-05-23T05:14:39.470Z,98211.56
2023-05-23T05:17:06.304Z,98216.31
2023-05-23T05:19:41.423Z,98214.66
2023-05-23T05:22:08.306Z,98212.22
2023-05-23T05:24:35.596Z,98218.38
2023-05-23T05:27:02.324Z,98224.13
2023-05-23T05:29:29.701Z,98218.59
2023-05-23T05:31:57.909Z,98220.06
2023-05-23T05:34:24.626Z,98217.34
2023-05-23T05:36:56.109Z,98217.34
2023-05-23T05:39:24.900Z,98223.09
2023-05-23T05:41:51.570Z,98220.59
2023-05-23T05:44:18.986Z,98223.28
2023-05-23T05:46:46.202Z,98223.09
2023-05-23T05:49:13.000Z,98227.63
2023-05-23T05:51:39.876Z,98220.59
2023-05-23T05:54:06.736Z,98221.00
2023-05-23T05:56:33.466Z,98218.53
2023-05-23T05:59:00.433Z,98222.22
2023-05-23T06:01:27.142Z,98228.84
2023-05-23T06:03:54.162Z,98230.47
2023-05-23T06:06:21.964Z,98234.34
2023-05-23T06:08:49.571Z,98233.72
2023-05-23T06:11:17.267Z,98237.03
2023-05-23T06:13:44.013Z,98232.97
2023-05-23T06:16:10.782Z,98233.81
2023-05-23T06:18:37.635Z,98242.50
2023-05-23T06:21:04.761Z,98237.09
2023-05-23T06:23:33.405Z,98238.28
2023-05-23T06:26:00.199Z,98241.38
2023-05-23T06:28:26.847Z,98240.31
2023-05-23T06:30:53.509Z,98239.72
2023-05-23T06:33:20.300Z,98245.72
2023-05-23T06:35:48.731Z,98247.97
2023-05-23T06:38:17.684Z,98252.94
2023-05-23T06:40:44.613Z,98255.59
2023-05-23T06:43:11.824Z,98249.44
2023-05-23T06:45:48.776Z,98257.25
2023-05-23T06:48:15.623Z,98252.31
2023-05-23T06:50:44.334Z,98258.69
2023-05-23T06:53:11.946Z,98265.28
2023-05-23T06:55:38.804Z,98264.25
2023-05-23T06:58:07.607Z,98265.72
2023-05-23T07:00:36.495Z,98272.72
2023-05-23T07:03:11.557Z,98282.56
2023-05-23T07:05:41.198Z,98277.25
2023-05-23T07:08:11.515Z,98271.66
2023-05-23T07:10:42.122Z,98288.38
2023-05-23T07:13:26.752Z,98284.28
2023-05-23T07:15:54.099Z,98288.63
2023-05-23T07:18:20.957Z,98292.75
2023-05-23T07:20:48.101Z,98298.72
2023-05-23T07:23:17.441Z,98291.53
2023-05-23T07:26:01.216Z,98297.31
2023-05-23T07:28:33.993Z,98298.53
2023-05-23T07:31:01.606Z,98301.63
2023-05-23T07:33:30.175Z,98299.97
2023-05-23T07:36:01.673Z,98300.78
2023-05-23T07:38:28.433Z,98302.03
2023-05-23T07:41:03.166Z,98303.25
2023-05-23T07:43:37.316Z,98300.38
2023-05-23T07:46:04.029Z,98300.38
2023-05-23T07:48:31.770Z,98302.41
2023-05-23T07:50:58.475Z,98300.72
2023-05-23T07:53:25.147Z,98298.47
2023-05-23T07:55:52.683Z,98306.31
2023-05-23T07:58:21.234Z,98304.69
2023-05-23T08:00:51.099Z,98300.53
2023-05-23T08:03:39.237Z,98310.63
2023-05-23T08:06:11.694Z,98312.16
2023-05-23T08:08:39.110Z,98316.88
2023-05-23T08:11:07.685Z,98319.38
2023-05-23T08:13:40.856Z,98331.56
2023-05-23T08:16:38.023Z,98328.50
2023-05-23T08:19:13.392Z,98336.00
2023-05-23T08:21:40.248Z,98331.88
2023-05-23T08:24:07.062Z,98335.41
2023-05-23T08:26:37.928Z,98331.25
2023-05-23T08:29:06.429Z,98337.44
2023-05-23T08:31:35.826Z,98328.91
2023-05-23T08:34:08.402Z,98338.00
2023-05-23T08:36:37.298Z,98338.28
2023-05-23T08:39:06.369Z,98340.97
2023-05-23T08:41:37.132Z,98345.22
2023-05-23T08:44:09.330Z,98347.53
2023-05-23T08:46:49.857Z,98341.31
2023-05-23T08:49:43.983Z,98343.78
2023-05-23T08:52:11.523Z,98352.97
2023-05-23T08:54:41.244Z,98346.47
2023-05-23T08:57:08.118Z,98352.06
2023-05-23T08:59:40.895Z,98357.78
2023-05-23T09:02:09.743Z,98362.75
2023-05-23T09:04:36.862Z,98358.88
2023-05-23T09:07:10.467Z,98367.72
2023-05-23T09:09:37.960Z,98364.22
2023-05-23T09:12:07.164Z,98367.94
2023-05-23T09:14:37.565Z,98369.59
2023-05-23T09:17:07.572Z,98366.09
2023-05-23T09:19:34.419Z,98374.72
2023-05-23T09:22:14.185Z,98379.81
2023-05-23T09:24:53.562Z,98378.81
2023-05-23T09:27:20.772Z,98384.13
2023-05-23T09:29:50.851Z,98373.78
2023-05-23T09:32:19.537Z,98382.94
2023-05-23T09:34:58.757Z,98376.47
2023-05-23T09:37:36.584Z,98373.97
2023-05-23T09:40:07.363Z,98378.00
2023-05-23T09:42:34.474Z,98380.22
2023-05-23T09:45:03.776Z,98383.25
2023-05-23T09:47:32.016Z,98380.16
2023-05-23T09:49:58.726Z,98386.19
2023-05-23T09:52:26.309Z,98383.78
2023-05-23T09:54:53.062Z,98388.94
2023-05-23T09:57:19.725Z,98387.50
2023-05-23T09:59:50.944Z,98389.97
2023-05-23T10:02:17.712Z,98393.47
2023-05-23T10:04:44.467Z,98390.13
2023-05-23T10:07:16.517Z,98385.25
2023-05-23T10:09:43.813Z,98382.34
2023-05-23T10:12:29.363Z,98388.53
2023-05-23T10:14:57.985Z,98388.69
2023-05-23T10:17:40.122Z,98387.47
2023-05-23T10:20:09.226Z,98387.47
2023-05-23T10:22:36.496Z,98395.50
2023-05-23T10:25:07.581Z,98393.66
2023-05-23T10:27:34.325Z,98398.16
2023-05-23T10:30:01.063Z,98390.78
2023-05-23T10:32:28.164Z,98393.84
2023-05-23T10:34:54.840Z,98401.94
2023-05-23T10:37:30.249Z,98399.19
2023-05-23T10:40:06.564Z,98395.69
2023-05-23T10:42:36.234Z,98388.63
2023-05-23T10:45:18.332Z,98396.94
2023-05-23T10:47:45.027Z,98395.88
2023-05-23T10:50:15.264Z,98397.75
2023-05-23T10:52:42.145Z,98394.88
2023-05-23T10:55:17.935Z,98398.81
2023-05-23T10:57:44.935Z,98394.25
2023-05-23T11:00:16.104Z,98395.06
2023-05-23T11:03:00.243Z,98403.53
2023-05-23T11:05:31.940Z,98394.81
2023-05-23T11:08:09.510Z,98398.78
2023-05-23T11:10:54.902Z,98397.88
2023-05-23T11:13:22.054Z,98402.44
2023-05-23T11:15:49.071Z,98405.34
2023-05-23T11:18:27.274Z,98403.91
2023-05-23T11:20:54.511Z,98405.88
2023-05-23T11:23:22.090Z,98404.44
2023-05-23T11:25:49.423Z,98407.09
2023-05-23T11:28:17.519Z,98405.84
2023-05-23T11:30:44.260Z,98401.06
2023-05-23T11:33:14.279Z,98399.06
2023-05-23T11:35:41.829Z,98404.44
2023-05-23T11:38:08.774Z,98396.53
2023-05-23T11:40:42.891Z,98392.81
2023-05-23T11:43:11.635Z,98400.00
2023-05-23T11:45:39.030Z,98400.38
2023-05-23T11:48:09.480Z,98395.22
2023-05-23T11:50:47.896Z,98398.56
2023-05-23T11:53:19.285Z,98395.75
2023-05-23T11:55:49.282Z,98394.97
2023-05-23T11:58:15.948Z,98397.28
2023-05-23T12:00:46.088Z,98393.78
2023-05-23T12:03:12.974Z,98394.88
2023-05-23T12:05:39.833Z,98395.47
2023-05-23T12:08:06.543Z,98395.09
2023-05-23T12:10:33.582Z,98396.13
2023-05-23T12:13:05.325Z,98393.38
2023-05-23T12:15:32.263Z,98391.28
2023-05-23T12:18:00.172Z,98389.25
2023-05-23T12:20:26.894Z,98390.69
2023-05-23T12:22:54.379Z,98390.09
2023-05-23T12:25:23.445Z,98382.06
2023-05-23T12:27:50.166Z,98377.38
2023-05-23T12:30:16.991Z,98370.91
2023-05-23T12:32:44.480Z,98369.34
2023-05-23T12:35:15.301Z,98372.53
2023-05-23T12:37:46.164Z,98361.72
2023-05-23T12:40:15.013Z,98359.22
2023-05-23T12:42:45.809Z,98371.72
2023-05-23T12:45:14.041Z,98365.97
2023-05-23T12:47:40.918Z,98366.59
2023-05-23T12:50:08.213Z,98359.22
2023-05-23T12:52:36.805Z,98363.28
2023-05-23T12:55:03.742Z,98356.41
2023-05-23T12:57:31.592Z,98360.28
2023-05-23T12:59:59.130Z,98351.66
2023-05-23T13:02:25.943Z,98354.34
2023-05-23T13:04:52.655Z,98351.34
2023-05-23T13:07:19.344Z,98358.78
2023-05-23T13:09:45.982Z,98348.03
2023-05-23T13:12:18.714Z,98353.69
2023-05-23T13:14:45.708Z,98357.75
2023-05-23T13:17:24.530Z,98360.75
2023-05-23T13:19:51.669Z,98364.63
2023-05-23T13:22:18.366Z,98367.78
2023-05-23T13:24:45.127Z,98368.75
2023-05-23T13:27:11.792Z,98366.97
2023-05-23T13:29:38.509Z,98369.53
2023-05-23T13:32:05.622Z,98367.69
2023-05-23T13:34:32.335Z,98358.47
2023-05-23T13:36:59.032Z,98356.91
2023-05-23T13:39:25.737Z,98354.38
2023-05-23T13:41:52.386Z,98362.63
2023-05-23T13:44:19.038Z,98369.50
2023-05-23T13:46:45.890Z,98375.59
2023-05-23T13:49:18.837Z,98367.75
2023-05-23T13:51:45.597Z,98361.59
2023-05-23T13:54:13.663Z,98368.34
2023-05-23T13:56:40.656Z,98367.28
2023-05-23T13:59:11.784Z,98361.03
2023-05-23T14:01:38.487Z,98359.53
2023-05-23T14:04:06.997Z,98357.75
2023-05-23T14:06:34.031Z,98349.44
2023-05-23T14:09:00.862Z,98361.91
2023-05-23T14:11:28.590Z,98360.44
2023-05-23T14:13:55.351Z,98358.78
2023-05-23T14:16:22.095Z,98351.47
2023-05-23T14:18:49.113Z,98361.19
2023-05-23T14:21:16.143Z,98357.81
2023-05-23T14:23:43.605Z,98353.84
2023-05-23T14:26:10.398Z,98362.69
2023-05-23T14:28:38.182Z,98356.22
2023-05-23T14:31:04.921Z,98360.13
2023-05-23T14:33:33.905Z,98353.25
2023-05-23T14:36:01.054Z,98349.69
2023-05-23T14:38:27.800Z,98350.03
2023-05-23T14:40:55.101Z,98348.03
2023-05-23T14:43:21.848Z,98353.25
2023-05-23T14:45:48.606Z,98351.00
2023-05-23T14:48:15.356Z,98353.50
2023-05-23T14:50:44.957Z,98350.72
2023-05-23T14:53:11.651Z,98342.72
2023-05-23T14:55:38.394Z,98336.47
2023-05-23T14:58:06.513Z,98339.53
2023-05-23T15:00:33.497Z,98345.34
2023-05-23T15:03:00.787Z,98348.03
2023-05-23T15:05:27.470Z,98345.09
2023-05-23T15:07:54.273Z,98351.84
2023-05-23T15:10:21.764Z,98353.47
2023-05-23T15:12:48.643Z,98348.75
2023-05-23T15:15:22.834Z,98348.53
2023-05-23T15:17:50.965Z,98354.81
2023-05-23T15:20:18.084Z,98344.78
2023-05-23T15:22:44.761Z,98346.78
2023-05-23T15:25:11.560Z,98335.53
2023-05-23T15:27:41.752Z,98336.22
2023-05-23T15:30:09.628Z,98342.59
2023-05-23T15:32:36.330Z,98343.50
2023-05-23T15:35:03.010Z,98336.56
2023-05-23T15:37:29.664Z,98343.69
2023-05-23T15:39:56.420Z,98343.69
2023-05-23T15:42:23.108Z,98341.66
2023-05-23T15:44:49.888Z,98331.66
2023-05-23T15:47:16.681Z,98331.88
2023-05-23T15:49:43.344Z,98340.34
2023-05-23T15:52:10.076Z,98331.47
2023-05-23T15:54:39.162Z,98342.94
2023-05-23T15:57:05.953Z,98341.75
2023-05-23T15:59:32.685Z,98334.22
2023-05-23T16:01:59.547Z,98335.78
2023-05-23T16:04:26.718Z,98331.16
2023-05-23T16:06:53.353Z,98336.91
2023-05-23T16:09:20.059Z,98329.34
2023-05-23T16:11:46.733Z,98331.50
2023-05-23T16:14:13.425Z,98329.03
2023-05-23T16:16:40.245Z,98335.97
2023-05-23T16:19:07.141Z,98337.19
2023-05-23T16:21:34.127Z,98334.13
2023-05-23T16:24:00.903Z,98334.28
2023-05-23T16:26:28.358Z,98339.28
2023-05-23T16:28:55.028Z,98338.50
2023-05-23T16:31:25.735Z,98336.88
2023-05-23T16:33:52.461Z,98337.88
2023-05-23T16:36:19.099Z,98339.75
2023-05-23T16:38:46.314Z,98334.13
2023-05-23T16:41:13.028Z,98339.50
2023-05-23T16:43:39.883Z,98336.63
2023-05-23T16:46:06.622Z,98333.97
2023-05-23T16:48:33.282Z,98334.91
2023-05-23T16:50:59.974Z,98336.56
2023-05-23T16:53:26.619Z,98335.69
2023-05-23T16:55:53.274Z,98330.69
2023-05-23T16:58:21.271Z,98334.69
2023-05-23T17:00:48.082Z,98339.25
2023-05-23T17:03:14.831Z,98342.69
2023-05-23T17:05:41.846Z,98338.19
2023-05-23T17:08:11.925Z,98338.19
2023-05-23T17:10:38.615Z,98339.91
2023-05-23T17:13:05.268Z,98337.09
2023-05-23T17:15:32.083Z,98342.84
2023-05-23T17:17:58.794Z,98343.84
2023-05-23T17:20:27.166Z,98333.44
2023-05-23T17:22:53.976Z,98335.63
2023-05-23T17:25:21.082Z,98343.22
2023-05-23T17:27:47.748Z,98350.00
2023-05-23T17:30:20.264Z,98349.94
2023-05-23T17:32:47.037Z,98345.22
2023-05-23T17:35:13.902Z,98343.03
2023-05-23T17:37:43.694Z,98351.47
2023-05-23T17:40:14.172Z,98349.03
2023-05-23T17:42:43.951Z,98359.31
2023-05-23T17:45:10.743Z,98354.44
2023-05-23T17:47:37.443Z,98370.16
2023-05-23T17:50:04.661Z,98362.34
2023-05-23T17:52:31.337Z,98361.72
2023-05-23T17:54:58.171Z,98367.47
2023-05-23T17:57:24.924Z,98368.50
2023-05-23T17:59:51.876Z,98375.75
2023-05-23T18:02:18.770Z,98373.66
2023-05-23T18:04:45.503Z,98374.22
2023-05-23T18:07:12.274Z,98379.44
2023-05-23T18:09:39.079Z,98376.59
2023-05-23T18:12:06.080Z,98374.72
2023-05-23T18:14:32.832Z,98382.53
2023-05-23T18:16:59.565Z,98384.41
2023-05-23T18:19:26.295Z,98387.94
2023-05-23T18:21:52.976Z,98386.94
2023-05-23T18:24:19.843Z,98388.34
2023-05-23T18:26:46.520Z,98394.97
2023-05-23T18:29:13.278Z,98392.91
2023-05-23T18:31:40.270Z,98395.97
2023-05-23T18:34:07.132Z,98394.13
2023-05-23T18:36:33.907Z,98395.56
2023-05-23T18:39:00.584Z,98397.81
2023-05-23T18:41:28.163Z,98393.09
2023-05-23T18:43:54.846Z,98396.81
2023-05-23T18:46:21.676Z,98400.72
2023-05-23T18:48:48.982Z,98402.56
2023-05-23T18:51:15.777Z,98409.56
2023-05-23T18:53:43.365Z,98417.41
2023-05-23T18:56:10.096Z,98420.47
2023-05-23T18:58:39.548Z,98420.69
2023-05-23T19:01:07.145Z,98428.91
2023-05-23T19:03:35.188Z,98428.69
2023-05-23T19:06:04.680Z,98431.34
2023-05-23T19:08:31.997Z,98428.63
2023-05-23T19:11:05.926Z,98435.22
2023-05-23T19:13:32.784Z,98437.81
2023-05-23T19:15:59.646Z,98448.47
2023-05-23T19:18:26.587Z,98453.00
2023-05-23T19:20:54.335Z,98450.56
2023-05-23T19:23:21.089Z,98461.84
2023-05-23T19:25:47.822Z,98465.09
2023-05-23T19:28:17.265Z,98471.59
2023-05-23T19:30:45.835Z,98471.66
2023-05-23T19:33:12.656Z,98478.19
2023-05-23T19:35:43.272Z,98476.03
2023-05-23T19:38:10.074Z,98474.25
2023-05-23T19:40:39.916Z,98478.75
2023-05-23T19:43:07.733Z,98484.97
2023-05-23T19:45:34.401Z,98489.66
2023-05-23T19:48:04.551Z,98494.47
2023-05-23T19:50:34.287Z,98500.88
2023-05-23T19:53:01.152Z,98510.19
2023-05-23T19:55:27.814Z,98506.19
2023-05-23T19:57:54.531Z,98510.31
2023-05-23T20:00:21.729Z,98507.59
2023-05-23T20:02:48.415Z,98502.50
2023-05-23T20:05:15.090Z,98512.78
2023-05-23T20:07:41.836Z,98518.59
2023-05-23T20:10:09.048Z,98520.69
2023-05-23T20:12:35.854Z,98525.81
2023-05-23T20:15:02.754Z,98526.03
2023-05-23T20:17:30.164Z,98540.91
2023-05-23T20:19:57.205Z,98535.94
2023-05-23T20:22:24.079Z,98538.63
2023-05-23T20:24:50.868Z,98539.03
2023-05-23T20:27:18.016Z,98544.94
2023-05-23T20:29:44.690Z,98538.78
2023-05-23T20:32:20.148Z,98539.59
2023-05-23T20:34:46.924Z,98543.38
2023-05-23T20:37:14.690Z,98534.41
2023-05-23T20:39:44.063Z,98543.00
2023-05-23T20:42:10.902Z,98538.97
2023-05-23T20:44:38.059Z,98547.09
2023-05-23T20:47:06.303Z,98545.50
2023-05-23T20:49:34.952Z,98555.13
2023-05-23T20:52:01.779Z,98555.25
2023-05-23T20:54:28.496Z,98555.00
2023-05-23T20:56:55.164Z,98560.00
2023-05-23T20:59:21.870Z,98559.84
2023-05-23T21:01:49.238Z,98568.03
2023-05-23T21:04:18.747Z,98573.22
2023-05-23T21:06:45.563Z,98569.63
2023-05-23T21:09:13.804Z,98575.63
2023-05-23T21:11:40.454Z,98571.59
2023-05-23T21:14:07.203Z,98580.53
2023-05-23T21:16:33.895Z,98584.22
2023-05-23T21:19:00.689Z,98583.06
2023-05-23T21:21:30.555Z,98584.59
2023-05-23T21:23:57.223Z,98577.94
2023-05-23T21:26:23.875Z,98593.59
2023-05-23T21:28:50.568Z,98590.56
2023-05-23T21:31:24.066Z,98587.44
2023-05-23T21:33:56.591Z,98595.00
2023-05-23T21:36:23.265Z,98592.63
2023-05-23T21:38:49.904Z,98595.19
2023-05-23T21:41:16.908Z,98592.25
2023-05-23T21:43:44.641Z,98586.53
2023-05-23T21:46:11.387Z,98588.63
2023-05-23T21:48:38.065Z,98592.91
2023-05-23T21:51:04.819Z,98586.81
2023-05-23T21:53:31.679Z,98591.44
2023-05-23T21:55:58.574Z,98586.81
2023-05-23T21:58:25.215Z,98587.00
2023-05-23T22:00:51.862Z,98593.09
2023-05-23T22:03:18.612Z,98597.84
2023-05-23T22:05:45.325Z,98596.22
2023-05-23T22:08:12.087Z,98599.06
2023-05-23T22:10:40.538Z,98608.13
2023-05-23T22:13:07.607Z,98607.97
2023-05-23T22:15:35.585Z,98606.66
2023-05-23T22:18:02.319Z,98610.81
2023-05-23T22:20:29.876Z,98598.59
2023-05-23T22:22:56.589Z,98594.94
2023-05-23T22:25:25.194Z,98597.72
2023-05-23T22:27:52.128Z,98599.47
2023-05-23T22:30:18.841Z,98591.03
2023-05-23T22:32:45.895Z,98596.06
2023-05-23T22:35:12.633Z,98596.19
2023-05-23T22:37:39.285Z,98598.63
2023-05-23T22:40:06.763Z,98603.22
2023-05-23T22:42:33.427Z,98605.66
2023-05-23T22:45:00.314Z,98606.63
2023-05-23T22:47:29.404Z,98606.78
2023-05-23T22:49:59.867Z,98603.22
2023-05-23T22:52:26.585Z,98604.13
2023-05-23T22:54:53.254Z,98609.34
2023-05-23T22:57:19.926Z,98611.44
2023-05-23T22:59:46.674Z,98611.56
2023-05-23T23:02:13.460Z,98609.72
2023-05-23T23:04:41.915Z,98605.47
2023-05-23T23:07:08.903Z,98605.00
2023-05-23T23:09:35.568Z,98612.19
2023-05-23T23:12:02.256Z,98613.13
2023-05-23T23:14:28.914Z,98607.28
2023-05-23T23:16:56.163Z,98604.47
2023-05-23T23:19:22.902Z,98596.53
2023-05-23T23:21:49.835Z,98604.78
2023-05-23T23:24:16.499Z,98595.75
2023-05-23T23:26:43.157Z,98595.00
2023-05-23T23:29:09.853Z,98592.41
2023-05-23T23:31:36.639Z,98591.22
2023-05-23T23:34:03.329Z,98592.22
2023-05-23T23:36:29.987Z,98598.66
2023-05-23T23:38:56.622Z,98594.03
2023-05-23T23:41:23.472Z,98596.84
2023-05-23T23:43:50.140Z,98594.78
2023-05-23T23:46:18.948Z,98593.22
2023-05-23T23:48:45.768Z,98599.56
2023-05-23T23:51:13.107Z,98598.03
2023-05-23T23:53:49.235Z,98589.03
2023-05-23T23:56:17.659Z,98588.31
2023-05-23T23:58:44.306Z,98594.34
